Time;durP1;ratioP1;P1;durP2;ratioP2;P2;SDS_P1;SDS_P2;PMS_P1;PMS_P2;Temp;Humidity;BMP_temperature;BMP_pressure;BME280_temperature;BME280_humidity;BME280_pressure;Samples;Min_cycle;Max_cycle;Signal;HPM_P1;HPM_P2
2022/07/13 00:02:11;;;;;;;3.47;2.80;;;23.00;1.00;;;;;;5068904;28;20217;-84
2022/07/13 00:04:39;;;;;;;3.15;2.85;;;23.00;1.00;;;;;;5061231;28;20233;-87
2022/07/13 00:07:06;;;;;;;5.05;2.88;;;22.90;1.00;;;;;;5054671;28;20586;-83
2022/07/13 00:09:33;;;;;;;3.10;2.80;;;22.90;1.00;;;;;;5053922;28;20202;-85
2022/07/13 00:12:00;;;;;;;2.63;2.42;;;22.90;99.90;;;;;;5054369;28;20276;-83
2022/07/13 00:14:27;;;;;;;3.45;2.83;;;22.90;1.00;;;;;;5053140;28;20287;-85
2022/07/13 00:16:53;;;;;;;3.40;3.10;;;22.80;1.00;;;;;;5053978;28;20202;-84
2022/07/13 00:19:20;;;;;;;3.17;2.88;;;22.80;99.90;;;;;;5053753;28;20204;-83
2022/07/13 00:21:49;;;;;;;3.05;2.75;;;22.80;1.00;;;;;;5053008;28;20209;-82
2022/07/13 00:24:16;;;;;;;3.15;2.92;;;22.70;1.00;;;;;;5052635;28;20208;-81
2022/07/13 00:26:42;;;;;;;3.90;3.08;;;22.70;1.00;;;;;;5053791;28;20294;-86
2022/07/13 00:29:09;;;;;;;4.20;3.70;;;22.70;1.00;;;;;;5039700;28;20218;-83
2022/07/13 00:31:36;;;;;;;4.20;3.50;;;22.70;1.00;;;;;;5033587;28;20199;-84
2022/07/13 00:34:03;;;;;;;3.50;3.20;;;22.70;1.00;;;;;;5033795;28;20205;-82
2022/07/13 00:36:30;;;;;;;3.53;3.22;;;22.70;1.00;;;;;;5032606;28;20202;-87
2022/07/13 00:38:58;;;;;;;4.90;3.35;;;22.70;1.00;;;;;;5045967;28;20281;-83
2022/07/13 00:41:25;;;;;;;4.70;3.50;;;22.70;1.00;;;;;;5053400;28;20230;-84
2022/07/13 00:43:52;;;;;;;3.38;3.08;;;22.70;1.00;;;;;;5054273;28;20253;-82
2022/07/13 00:46:20;;;;;;;5.20;3.70;;;22.70;99.90;;;;;;5039184;28;20203;-81
2022/07/13 00:48:47;;;;;;;3.47;3.17;;;22.70;99.90;;;;;;5050994;28;20233;-81
2022/07/13 00:51:14;;;;;;;4.55;3.60;;;22.70;1.00;;;;;;5047548;28;20215;-83
2022/07/13 00:53:41;;;;;;;4.00;3.70;;;22.70;1.00;;;;;;5037773;28;20293;-84
2022/07/13 00:56:10;;;;;;;4.07;3.67;;;22.70;1.00;;;;;;5045661;28;20347;-84
2022/07/13 00:58:37;;;;;;;3.85;3.50;;;22.70;1.00;;;;;;5039122;28;20198;-84
2022/07/13 01:01:04;;;;;;;4.15;3.75;;;22.70;1.00;;;;;;5050850;28;20568;-84
2022/07/13 01:03:31;;;;;;;3.47;3.20;;;22.70;1.00;;;;;;5049102;28;20209;-84
2022/07/13 01:05:59;;;;;;;3.88;3.25;;;22.70;1.00;;;;;;5051925;28;20209;-85
2022/07/13 01:08:26;;;;;;;6.07;4.05;;;22.60;1.00;;;;;;5052980;28;20225;-82
2022/07/13 01:10:54;;;;;;;4.88;4.15;;;22.60;1.00;;;;;;5048133;28;20723;-84
2022/07/13 01:13:23;;;;;;;4.10;3.40;;;22.60;1.00;;;;;;5035377;28;20210;-83
2022/07/13 01:15:51;;;;;;;4.10;3.70;;;22.70;1.00;;;;;;5052931;28;20252;-83
2022/07/13 01:18:17;;;;;;;4.18;3.78;;;22.60;1.00;;;;;;5052528;28;20202;-84
2022/07/13 01:20:44;;;;;;;5.35;3.92;;;22.60;1.00;;;;;;5042238;28;20217;-84
2022/07/13 01:23:14;;;;;;;4.47;4.07;;;22.60;1.00;;;;;;5033504;28;20202;-83
2022/07/13 01:25:42;;;;;;;4.35;3.95;;;22.60;1.00;;;;;;5032883;28;20199;-83
2022/07/13 01:28:09;;;;;;;4.35;3.88;;;22.60;1.00;;;;;;5032715;28;20227;-83
2022/07/13 01:30:36;;;;;;;3.90;3.50;;;22.50;1.00;;;;;;5035640;28;20675;-84
2022/07/13 01:33:03;;;;;;;4.18;3.78;;;22.50;1.00;;;;;;5051718;28;20212;-84
2022/07/13 01:35:31;;;;;;;4.50;4.05;;;22.50;1.00;;;;;;5052587;28;20208;-85
2022/07/13 01:37:59;;;;;;;4.53;4.13;;;22.50;1.00;;;;;;5052934;28;20194;-84
2022/07/13 01:40:27;;;;;;;4.75;4.05;;;22.50;1.00;;;;;;5053255;28;20186;-83
2022/07/13 01:42:54;;;;;;;4.13;3.83;;;22.50;1.00;;;;;;5053641;28;20582;-86
2022/07/13 01:45:23;;;;;;;5.57;4.82;;;22.50;4.00;;;;;;5053061;28;20198;-86
2022/07/13 01:47:52;;;;;;;6.68;4.25;;;22.50;1.00;;;;;;5051947;28;20194;-83
2022/07/13 01:50:21;;;;;;;4.47;4.07;;;22.50;1.00;;;;;;5053311;28;20693;-86
2022/07/13 01:52:48;;;;;;;4.72;4.30;;;22.50;1.00;;;;;;5055928;28;20194;-85
2022/07/13 01:55:15;;;;;;;5.50;3.72;;;22.50;1.00;;;;;;5056906;28;20294;-87
2022/07/13 01:57:44;;;;;;;5.97;4.03;;;22.50;1.00;;;;;;5057358;28;20554;-87
2022/07/13 02:00:16;;;;;;;4.35;3.95;;;22.50;1.00;;;;;;5056918;28;20202;-83
2022/07/13 02:02:44;;;;;;;4.35;3.95;;;22.50;1.00;;;;;;5056843;28;20665;-86
2022/07/13 02:05:12;;;;;;;4.63;3.90;;;22.50;1.00;;;;;;5056968;28;20289;-84
2022/07/13 02:07:39;;;;;;;4.95;4.00;;;22.40;1.00;;;;;;5056723;28;20924;-85
2022/07/13 02:10:08;;;;;;;3.90;3.60;;;22.40;1.00;;;;;;5048423;28;20280;-83
2022/07/13 02:12:35;;;;;;;4.00;3.60;;;22.40;1.00;;;;;;5037095;28;20206;-87
2022/07/13 02:15:04;;;;;;;4.63;4.22;;;22.40;1.00;;;;;;5037506;28;20281;-87
2022/07/13 02:17:31;;;;;;;4.32;3.92;;;22.30;2.10;;;;;;5037197;28;20567;-87
2022/07/13 02:19:58;;;;;;;4.35;3.95;;;22.30;4.20;;;;;;5051551;28;20236;-87
2022/07/13 02:22:24;;;;;;;4.00;3.70;;;22.30;6.80;;;;;;5056423;28;20219;-86
2022/07/13 02:24:51;;;;;;;4.20;3.80;;;22.30;4.30;;;;;;5057061;28;20490;-86
2022/07/13 02:27:18;;;;;;;4.00;3.60;;;22.30;12.90;;;;;;5056710;28;20194;-87
2022/07/13 02:29:45;;;;;;;4.32;3.78;;;22.30;10.30;;;;;;5040226;28;20522;-86
2022/07/13 02:32:14;;;;;;;4.18;3.78;;;22.30;13.70;;;;;;5036683;28;20203;-86
2022/07/13 02:34:40;;;;;;;7.00;4.22;;;22.30;1.00;;;;;;5036917;28;20282;-84
2022/07/13 02:37:11;;;;;;;6.95;4.10;;;22.30;1.00;;;;;;5036773;28;20187;-88
2022/07/13 02:39:38;;;;;;;5.95;3.78;;;22.30;1.00;;;;;;5036502;28;20506;-84
2022/07/13 02:42:05;;;;;;;6.40;4.00;;;22.30;1.00;;;;;;5036194;28;20556;-85
2022/07/13 02:44:32;;;;;;;4.03;3.67;;;22.30;1.00;;;;;;5037272;28;20219;-86
2022/07/13 02:46:59;;;;;;;4.05;3.55;;;22.30;1.00;;;;;;5056585;28;20276;-88
2022/07/13 02:49:27;;;;;;;6.05;3.83;;;22.30;1.00;;;;;;5054408;28;20238;-86
2022/07/13 02:51:54;;;;;;;5.95;3.92;;;22.30;1.00;;;;;;5056091;28;20202;-85
2022/07/13 02:54:22;;;;;;;3.90;3.55;;;22.30;1.00;;;;;;5054913;28;20214;-83
2022/07/13 02:56:48;;;;;;;4.57;4.03;;;22.40;1.00;;;;;;5055106;28;20233;-86
2022/07/13 02:59:15;;;;;;;3.92;3.53;;;22.40;1.00;;;;;;5056098;28;20198;-86
2022/07/13 03:01:42;;;;;;;6.15;3.92;;;22.40;1.00;;;;;;5055849;28;20201;-87
2022/07/13 03:04:09;;;;;;;4.97;4.10;;;22.40;1.00;;;;;;5055583;28;20262;-85
2022/07/13 03:06:37;;;;;;;3.47;3.17;;;22.50;99.90;;;;;;5056030;28;20222;-86
2022/07/13 03:09:04;;;;;;;5.60;3.65;;;22.50;1.00;;;;;;5055825;28;20218;-88
2022/07/13 03:11:31;;;;;;;7.68;3.72;;;22.50;29.40;;;;;;5055853;28;20288;-84
2022/07/13 03:13:58;;;;;;;6.85;4.07;;;22.60;99.90;;;;;;5054810;28;20201;-86
2022/07/13 03:16:25;;;;;;;4.20;3.72;;;22.60;9.50;;;;;;5051311;28;20193;-88
2022/07/13 03:18:53;;;;;;;6.68;4.00;;;22.50;1.00;;;;;;5037680;28;20203;-85
2022/07/13 03:21:20;;;;;;;4.03;3.63;;;22.60;1.00;;;;;;5048930;28;20201;-85
2022/07/13 03:23:48;;;;;;;7.93;3.67;;;22.60;1.00;;;;;;5049678;28;20636;-87
2022/07/13 03:26:15;;;;;;;4.32;3.88;;;22.50;68.90;;;;;;5048003;28;20296;-87
2022/07/13 03:28:42;;;;;;;5.38;4.13;;;22.60;32.00;;;;;;5036145;28;20223;-87
2022/07/13 03:31:09;;;;;;;7.50;4.40;;;22.60;99.90;;;;;;5056390;28;20194;-87
2022/07/13 03:33:35;;;;;;;6.25;3.80;;;22.60;99.90;;;;;;5055691;28;20594;-85
2022/07/13 03:36:03;;;;;;;4.53;3.67;;;22.60;99.90;;;;;;5055372;28;20630;-84
2022/07/13 03:38:31;;;;;;;7.30;4.28;;;22.60;99.90;;;;;;5055772;28;20497;-87
2022/07/13 03:40:59;;;;;;;6.38;4.28;;;22.50;1.00;;;;;;5055404;28;20263;-90
2022/07/13 03:43:26;;;;;;;4.70;3.92;;;22.50;99.90;;;;;;5055443;28;20237;-84
2022/07/13 03:45:53;;;;;;;4.07;3.67;;;22.50;99.90;;;;;;5055419;28;20276;-86
2022/07/13 03:48:20;;;;;;;4.20;3.85;;;22.50;1.00;;;;;;5054155;28;20322;-86
2022/07/13 03:50:48;;;;;;;6.13;4.68;;;22.40;1.00;;;;;;5055654;28;20577;-86
2022/07/13 03:53:15;;;;;;;4.55;4.15;;;22.50;1.00;;;;;;5035910;28;20775;-86
2022/07/13 03:55:43;;;;;;;6.35;4.85;;;22.40;1.00;;;;;;5045024;28;20289;-85
2022/07/13 03:58:12;;;;;;;4.78;4.05;;;22.50;1.00;;;;;;5055810;28;20290;-84
2022/07/13 04:00:39;;;;;;;7.50;4.63;;;22.40;1.00;;;;;;5054921;28;20553;-86
2022/07/13 04:03:05;;;;;;;6.18;4.78;;;22.40;16.50;;;;;;5054668;28;20509;-85
2022/07/13 04:05:32;;;;;;;7.90;5.53;;;22.30;38.80;;;;;;5055011;28;20198;-83
2022/07/13 04:07:59;;;;;;;7.75;5.40;;;22.30;71.90;;;;;;5054259;28;20745;-84
2022/07/13 04:10:26;;;;;;;8.15;4.95;;;22.20;98.60;;;;;;5054773;28;20497;-85
2022/07/13 04:12:53;;;;;;;7.13;5.40;;;22.20;99.90;;;;;;5054399;28;20244;-86
2022/07/13 04:15:21;;;;;;;8.60;5.82;;;22.20;99.90;;;;;;5054663;28;20500;-85
2022/07/13 04:17:48;;;;;;;10.50;6.22;;;22.20;99.90;;;;;;5054819;28;20301;-87
2022/07/13 04:20:15;;;;;;;8.25;5.68;;;22.20;99.90;;;;;;5055096;28;20305;-85
2022/07/13 04:22:42;;;;;;;8.23;5.68;;;22.20;99.90;;;;;;5054831;28;20609;-85
2022/07/13 04:25:09;;;;;;;6.53;5.20;;;22.20;99.90;;;;;;5054844;28;20289;-86
2022/07/13 04:27:36;;;;;;;5.88;4.80;;;22.20;99.90;;;;;;5054821;28;20277;-85
2022/07/13 04:30:04;;;;;;;6.82;4.88;;;22.20;99.90;;;;;;5054526;28;20621;-86
2022/07/13 04:32:32;;;;;;;5.60;4.95;;;22.10;99.90;;;;;;5047442;28;20191;-86
2022/07/13 04:34:59;;;;;;;7.53;5.63;;;22.10;99.90;;;;;;5034838;28;20282;-85
2022/07/13 04:37:25;;;;;;;5.57;4.78;;;22.10;99.90;;;;;;5034468;28;20221;-85
2022/07/13 04:39:53;;;;;;;8.57;5.20;;;22.10;99.90;;;;;;5034594;28;20203;-86
2022/07/13 04:42:19;;;;;;;7.13;4.60;;;22.10;99.90;;;;;;5043113;28;20267;-86
2022/07/13 04:44:46;;;;;;;9.02;6.43;;;22.10;99.90;;;;;;5054350;28;20512;-85
2022/07/13 04:47:13;;;;;;;10.02;5.45;;;22.10;99.90;;;;;;5054497;28;20459;-85
2022/07/13 04:49:41;;;;;;;5.97;4.38;;;22.20;99.90;;;;;;5053634;28;20539;-86
2022/07/13 04:52:08;;;;;;;9.57;4.82;;;22.20;99.90;;;;;;5054278;28;20190;-85
2022/07/13 04:54:35;;;;;;;10.25;4.63;;;22.20;99.90;;;;;;5053393;28;20213;-86
2022/07/13 04:57:02;;;;;;;4.60;3.70;;;22.20;99.90;;;;;;5051840;28;20212;-84
2022/07/13 04:59:29;;;;;;;6.65;3.72;;;22.20;99.90;;;;;;5054331;28;20568;-86
2022/07/13 05:01:56;;;;;;;4.20;3.40;;;22.20;99.90;;;;;;5054671;28;20288;-85
2022/07/13 05:04:24;;;;;;;4.82;3.30;;;22.20;99.90;;;;;;5054456;28;20281;-86
2022/07/13 05:06:52;;;;;;;3.47;3.03;;;22.20;99.90;;;;;;5054416;28;20340;-86
2022/07/13 05:09:19;;;;;;;5.82;3.55;;;22.20;99.90;;;;;;5053784;28;20316;-85
2022/07/13 05:11:46;;;;;;;12.27;3.80;;;22.20;99.90;;;;;;5054099;28;20202;-86
2022/07/13 05:14:13;;;;;;;6.07;3.83;;;22.20;99.90;;;;;;5054228;28;20275;-85
2022/07/13 05:16:40;;;;;;;5.38;3.50;;;22.20;99.90;;;;;;5054050;28;20193;-86
2022/07/13 05:19:07;;;;;;;8.32;4.00;;;22.20;99.90;;;;;;5053816;28;20597;-87
2022/07/13 05:21:34;;;;;;;5.78;4.28;;;22.20;99.90;;;;;;5054182;28;20206;-88
2022/07/13 05:24:02;;;;;;;4.50;3.40;;;22.20;99.90;;;;;;5052583;28;20206;-85
2022/07/13 05:26:29;;;;;;;7.22;4.07;;;22.20;99.90;;;;;;5056043;28;20202;-87
2022/07/13 05:28:56;;;;;;;8.63;4.32;;;22.30;99.90;;;;;;5058009;28;20201;-86
2022/07/13 05:31:23;;;;;;;8.23;3.97;;;22.30;99.90;;;;;;5057574;28;20578;-86
2022/07/13 05:33:50;;;;;;;4.07;3.47;;;22.40;99.90;;;;;;5057978;28;20205;-85
2022/07/13 05:36:17;;;;;;;4.18;3.53;;;22.40;99.90;;;;;;5057642;28;20208;-84
2022/07/13 05:38:44;;;;;;;3.78;3.47;;;22.30;99.90;;;;;;5057077;28;20516;-85
2022/07/13 05:41:12;;;;;;;6.80;4.45;;;22.40;99.90;;;;;;5058113;28;20202;-85
2022/07/13 05:43:40;;;;;;;6.20;3.83;;;22.40;99.90;;;;;;5058173;28;20226;-84
2022/07/13 05:46:07;;;;;;;7.20;3.90;;;22.30;99.90;;;;;;5057037;28;20217;-83
2022/07/13 05:48:35;;;;;;;8.63;4.82;;;22.30;99.90;;;;;;5057618;28;20230;-86
2022/07/13 05:51:02;;;;;;;4.95;4.13;;;22.30;99.90;;;;;;5057360;28;20644;-85
2022/07/13 05:53:29;;;;;;;4.65;3.92;;;22.20;99.90;;;;;;5056645;28;20237;-82
2022/07/13 05:55:56;;;;;;;6.00;4.53;;;22.20;99.90;;;;;;5057889;28;20642;-85
2022/07/13 05:58:25;;;;;;;7.63;4.70;;;22.10;99.90;;;;;;5056623;28;20198;-85
2022/07/13 06:00:52;;;;;;;6.80;5.20;;;22.10;99.90;;;;;;5041888;28;20564;-86
2022/07/13 06:03:18;;;;;;;6.35;4.70;;;22.10;99.90;;;;;;5038281;28;20222;-86
2022/07/13 06:05:45;;;;;;;6.78;4.95;;;22.10;99.90;;;;;;5037746;28;20691;-83
2022/07/13 06:08:12;;;;;;;5.78;4.78;;;22.20;99.90;;;;;;5045545;28;20214;-87
2022/07/13 06:10:39;;;;;;;7.07;4.72;;;22.60;99.90;;;;;;5045146;28;20222;-86
2022/07/13 06:13:06;;;;;;;7.78;4.38;;;23.00;99.90;;;;;;5041157;28;20261;-86
2022/07/13 06:15:34;;;;;;;5.20;3.95;;;23.10;99.90;;;;;;5057374;28;20248;-86
2022/07/13 06:18:01;;;;;;;6.72;4.43;;;23.20;99.90;;;;;;5055079;28;20209;-84
2022/07/13 06:20:28;;;;;;;6.90;3.97;;;23.40;99.90;;;;;;5057159;28;20289;-84
2022/07/13 06:23:10;;;;;;;5.75;3.90;;;23.60;99.90;;;;;;5037386;28;20214;-86
2022/07/13 06:25:37;;;;;;;4.72;3.38;;;23.80;99.90;;;;;;5053279;28;20520;-87
2022/07/13 06:28:05;;;;;;;7.82;4.47;;;24.10;99.90;;;;;;5058027;28;20586;-87
2022/07/13 06:30:32;;;;;;;6.35;4.00;;;24.40;99.90;;;;;;5058199;28;20226;-87
2022/07/13 06:33:00;;;;;;;4.50;3.83;;;24.50;99.90;;;;;;5057755;28;20236;-86
2022/07/13 06:35:27;;;;;;;5.93;3.45;;;24.70;99.90;;;;;;5059064;28;20197;-87
2022/07/13 06:37:54;;;;;;;7.00;3.78;;;25.00;99.90;;;;;;5065721;28;20229;-84
2022/07/13 06:40:21;;;;;;;5.40;3.90;;;25.20;96.00;;;;;;5064594;28;20234;-87
2022/07/13 06:42:48;;;;;;;5.70;3.65;;;25.40;94.60;;;;;;5059791;28;20309;-87
2022/07/13 06:45:15;;;;;;;7.43;4.45;;;25.70;73.00;;;;;;5058501;28;20198;-87
2022/07/13 06:47:42;;;;;;;5.68;3.45;;;26.00;45.10;;;;;;5057783;28;20293;-85
2022/07/13 06:50:11;;;;;;;5.30;3.67;;;26.20;37.30;;;;;;5039765;28;20233;-86
2022/07/13 06:52:40;;;;;;;4.85;4.00;;;26.20;45.80;;;;;;5040072;28;20191;-86
2022/07/13 06:55:08;;;;;;;4.10;3.17;;;26.50;2.30;;;;;;5039080;28;20194;-86
2022/07/13 06:57:35;;;;;;;4.90;3.80;;;26.60;13.90;;;;;;5041427;28;20214;-86
2022/07/13 07:00:03;;;;;;;6.43;3.83;;;26.80;1.00;;;;;;5058747;28;20201;-87
2022/07/13 07:02:30;;;;;;;6.88;3.60;;;27.00;1.00;;;;;;5057850;28;20202;-87
2022/07/13 07:04:57;;;;;;;4.90;3.53;;;27.30;1.00;;;;;;5055077;28;20206;-88
2022/07/13 07:07:25;;;;;;;4.47;3.50;;;27.50;1.00;;;;;;5054922;28;20193;-86
2022/07/13 07:09:52;;;;;;;4.15;3.20;;;27.50;1.00;;;;;;5050131;28;20304;-87
2022/07/13 07:12:19;;;;;;;5.85;3.83;;;27.60;1.00;;;;;;5043435;28;20202;-87
2022/07/13 07:14:46;;;;;;;6.47;4.40;;;27.90;1.00;;;;;;5044579;28;20306;-86
2022/07/13 07:17:13;;;;;;;5.38;3.25;;;28.10;1.00;;;;;;5051765;28;20206;-84
2022/07/13 07:19:40;;;;;;;7.10;3.97;;;28.20;1.00;;;;;;5039945;28;20256;-83
2022/07/13 07:22:07;;;;;;;6.13;3.63;;;28.30;1.00;;;;;;5052378;28;20253;-82
2022/07/13 07:24:35;;;;;;;3.42;3.00;;;28.40;1.00;;;;;;5055908;28;20212;-83
2022/07/13 07:27:02;;;;;;;6.80;3.38;;;28.70;1.00;;;;;;5052426;28;20266;-80
2022/07/13 07:29:29;;;;;;;6.63;3.10;;;29.00;1.00;;;;;;5067173;28;20194;-83
2022/07/13 07:31:56;;;;;;;4.60;3.15;;;29.10;99.90;;;;;;5060697;28;20198;-86
2022/07/13 07:34:23;;;;;;;3.42;2.63;;;29.20;1.00;;;;;;5046928;28;20206;-85
2022/07/13 07:36:51;;;;;;;8.75;3.33;;;29.40;99.90;;;;;;5055382;28;20204;-85
2022/07/13 07:39:18;;;;;;;5.28;3.08;;;29.50;99.90;;;;;;5063227;28;20213;-82
2022/07/13 07:41:47;;;;;;;7.63;3.05;;;29.50;1.00;;;;;;5062773;28;20217;-87
2022/07/13 07:44:14;;;;;;;6.15;2.80;;;29.50;99.90;;;;;;5061210;28;20325;-83
2022/07/13 07:46:41;;;;;;;4.95;2.90;;;29.40;1.00;;;;;;5057357;28;20228;-85
2022/07/13 07:49:08;;;;;;;4.60;2.58;;;29.60;99.90;;;;;;5061781;28;20320;-81
2022/07/13 07:51:35;;;;;;;4.03;2.83;;;29.70;99.90;;;;;;5058957;28;20224;-81
2022/07/13 07:54:02;;;;;;;6.07;3.03;;;29.60;1.00;;;;;;5060419;28;20198;-83
2022/07/13 07:56:29;;;;;;;6.68;2.90;;;29.70;99.90;;;;;;5055842;28;20686;-83
2022/07/13 07:58:57;;;;;;;3.13;2.42;;;29.70;1.00;;;;;;5053917;28;20285;-81
2022/07/13 08:01:24;;;;;;;4.93;2.70;;;29.90;44.20;;;;;;5054213;28;20202;-80
2022/07/13 08:03:51;;;;;;;4.60;2.42;;;30.10;1.00;;;;;;5053052;28;20206;-81
2022/07/13 08:06:18;;;;;;;4.03;3.08;;;30.40;1.00;;;;;;5052822;28;20206;-81
2022/07/13 08:08:45;;;;;;;5.93;2.53;;;30.50;99.90;;;;;;5053101;28;20232;-80
2022/07/13 08:11:16;;;;;;;4.78;2.70;;;30.60;1.00;;;;;;5053304;28;20522;-81
2022/07/13 08:13:43;;;;;;;4.40;2.60;;;30.70;4.50;;;;;;5041694;28;20619;-81
2022/07/13 08:16:11;;;;;;;5.82;2.20;;;31.00;99.90;;;;;;5033742;28;20194;-82
2022/07/13 08:18:38;;;;;;;3.75;2.67;;;31.10;1.00;;;;;;5033662;28;20207;-81
2022/07/13 08:21:05;;;;;;;5.43;2.47;;;31.00;1.00;;;;;;5038228;28;20206;-81
2022/07/13 08:26:16;;;;;;;3.45;2.58;;;31.00;60.30;;;;;;5054190;28;20265;-82
2022/07/13 08:28:44;;;;;;;4.97;3.00;;;31.20;1.00;;;;;;5054221;28;20193;-83
2022/07/13 08:31:12;;;;;;;4.72;2.65;;;31.20;1.00;;;;;;5053935;28;20214;-82
2022/07/13 08:39:08;;;;;;;3.05;2.75;;;31.00;1.00;;;;;;5050400;28;20204;-86
2022/07/13 08:41:35;;;;;;;4.80;2.88;;;30.90;1.00;;;;;;5037803;28;20202;-82
2022/07/13 08:44:02;;;;;;;3.45;2.95;;;30.80;1.00;;;;;;5050598;28;20317;-81
2022/07/13 08:46:31;;;;;;;5.05;3.15;;;30.70;1.00;;;;;;5052472;28;20225;-82
2022/07/13 08:48:58;;;;;;;5.75;3.10;;;30.60;99.90;;;;;;5047051;28;20584;-81
2022/07/13 08:51:25;;;;;;;3.83;2.97;;;30.70;1.00;;;;;;5052146;28;20219;-84
2022/07/13 08:53:53;;;;;;;5.05;3.20;;;30.70;1.00;;;;;;5053346;28;20204;-82
2022/07/13 08:56:21;;;;;;;3.90;2.97;;;30.60;99.90;;;;;;5046617;28;20210;-83
2022/07/13 08:58:48;;;;;;;6.72;3.22;;;30.60;99.90;;;;;;5050160;28;20202;-82
2022/07/13 09:01:15;;;;;;;5.03;3.10;;;30.50;99.90;;;;;;5048507;28;20297;-83
2022/07/13 09:03:44;;;;;;;3.40;3.00;;;30.60;1.00;;;;;;5050593;28;20639;-82
2022/07/13 09:06:47;;;;;;;7.45;3.03;;;30.50;4.10;;;;;;5046975;28;20217;-81
2022/07/13 09:09:41;;;;;;;5.00;2.95;;;30.40;1.00;;;;;;5047239;28;20213;-83
2022/07/13 09:12:15;;;;;;;3.88;2.80;;;30.40;1.00;;;;;;5018050;28;20320;-81
2022/07/13 09:14:42;;;;;;;4.60;2.75;;;30.40;1.00;;;;;;5050425;28;20217;-82
2022/07/13 09:17:09;;;;;;;5.38;3.00;;;30.20;1.00;;;;;;5049464;28;20279;-84
2022/07/13 09:19:40;;;;;;;5.03;3.15;;;30.30;1.00;;;;;;5049526;28;20223;-82
2022/07/13 09:22:11;;;;;;;4.25;2.85;;;30.50;1.00;;;;;;5046904;28;20498;-84
2022/07/13 09:24:48;;;;;;;5.35;2.60;;;30.70;1.00;;;;;;5049311;28;20214;-86
2022/07/13 09:27:16;;;;;;;3.67;2.70;;;30.80;1.00;;;;;;5047193;28;20676;-84
2022/07/13 09:29:43;;;;;;;4.32;2.65;;;30.60;1.00;;;;;;5046965;28;20505;-81
2022/07/13 09:32:12;;;;;;;7.15;3.10;;;30.60;1.00;;;;;;5050703;28;20221;-84
2022/07/13 09:34:51;;;;;;;3.22;2.60;;;30.20;1.00;;;;;;5050529;28;20494;-80
2022/07/13 09:37:19;;;;;;;4.40;2.95;;;29.50;1.00;;;;;;5050182;28;20241;-82
2022/07/13 09:40:01;;;;;;;4.47;2.78;;;29.30;1.00;;;;;;5044913;28;20623;-84
2022/07/13 09:42:29;;;;;;;5.13;2.50;;;29.30;1.00;;;;;;5049607;28;20718;-82
2022/07/13 09:47:47;;;;;;;4.38;2.10;;;29.20;1.00;;;;;;5049028;28;20275;-82
2022/07/13 09:50:18;;;;;;;4.65;2.15;;;29.30;1.00;;;;;;5047654;28;20768;-84
2022/07/13 09:52:46;;;;;;;7.45;3.22;;;29.40;1.00;;;;;;5051971;28;20191;-83
2022/07/13 09:55:18;;;;;;;3.15;2.70;;;29.70;1.00;;;;;;5052554;28;20201;-84
2022/07/13 09:57:49;;;;;;;3.92;2.90;;;29.80;1.00;;;;;;5052176;28;20700;-84
2022/07/13 10:00:21;;;;;;;4.82;2.63;;;29.80;1.00;;;;;;5052594;28;20285;-87
2022/07/13 10:02:49;;;;;;;4.60;2.20;;;29.90;1.00;;;;;;5051204;28;20625;-84
2022/07/13 10:05:19;;;;;;;5.78;2.75;;;29.90;1.00;;;;;;5037786;28;20209;-86
2022/07/13 10:07:47;;;;;;;2.08;1.88;;;30.00;1.00;;;;;;5032834;28;20215;-87
2022/07/13 10:10:16;;;;;;;3.35;2.50;;;30.00;1.00;;;;;;5047447;28;20222;-84
2022/07/13 10:12:54;;;;;;;4.20;2.33;;;30.10;1.00;;;;;;5053795;28;20228;-83
2022/07/13 10:15:25;;;;;;;3.95;2.15;;;30.10;1.00;;;;;;5055077;28;20539;-85
2022/07/13 10:17:52;;;;;;;5.05;2.38;;;29.80;1.00;;;;;;5063042;23;20241;-83
2022/07/13 10:20:26;;;;;;;2.90;2.03;;;29.70;1.00;;;;;;5054234;28;20212;-85
2022/07/13 10:22:54;;;;;;;2.78;1.90;;;29.60;1.00;;;;;;5056127;28;20239;-87
2022/07/13 10:25:28;;;;;;;3.72;2.10;;;29.50;1.00;;;;;;5056714;28;20233;-84
2022/07/13 10:28:05;;;;;;;2.65;1.85;;;29.20;1.00;;;;;;5055432;28;20529;-86
2022/07/13 10:30:32;;;;;;;1.83;1.58;;;29.10;1.00;;;;;;5055195;28;20210;-89
2022/07/13 10:33:18;;;;;;;2.28;1.60;;;29.10;1.00;;;;;;5055281;28;20284;-86
2022/07/13 10:35:51;;;;;;;2.50;1.88;;;29.00;1.00;;;;;;5055169;28;20214;-88
2022/07/13 10:38:26;;;;;;;2.40;1.70;;;28.90;1.00;;;;;;5056311;28;20206;-86
2022/07/13 10:41:19;;;;;;;3.10;1.80;;;29.10;1.00;;;;;;5055417;28;20841;-87
2022/07/13 10:43:54;;;;;;;2.08;1.63;;;29.30;1.00;;;;;;5035897;28;20223;-83
2022/07/13 10:46:45;;;;;;;3.38;1.65;;;29.40;1.00;;;;;;5036098;28;20213;-84
2022/07/13 10:49:34;;;;;;;2.22;1.95;;;29.50;1.00;;;;;;5042846;28;20194;-88
2022/07/13 10:52:50;;;;;;;2.25;2.05;;;29.70;1.00;;;;;;5056500;28;20614;-84
2022/07/13 10:55:34;;;;;;;3.67;1.90;;;29.90;1.00;;;;;;5055892;28;20241;-86
2022/07/13 10:58:31;;;;;;;4.70;2.60;;;29.90;1.00;;;;;;5052734;28;20213;-85
2022/07/13 11:00:59;;;;;;;2.83;2.03;;;29.90;1.00;;;;;;5035076;28;20194;-88
2022/07/13 11:03:31;;;;;;;5.88;2.55;;;29.90;1.00;;;;;;5035472;28;20540;-90
2022/07/13 11:06:06;;;;;;;3.80;3.10;;;29.70;1.00;;;;;;5049351;28;20620;-85
2022/07/13 11:08:35;;;;;;;4.35;3.20;;;29.30;1.00;;;;;;5055214;28;20655;-87
2022/07/13 11:11:12;;;;;;;5.40;3.10;;;28.90;1.00;;;;;;5056205;28;20218;-88
2022/07/13 11:13:40;;;;;;;3.40;2.63;;;28.60;1.00;;;;;;5049864;28;20206;-86
2022/07/13 11:16:08;;;;;;;4.20;2.83;;;28.80;1.00;;;;;;5035736;28;20198;-86
2022/07/13 11:18:37;;;;;;;4.80;2.05;;;28.70;1.00;;;;;;5036309;28;20241;-87
2022/07/13 11:21:09;;;;;;;2.75;2.20;;;28.80;1.00;;;;;;5036485;28;20198;-91
2022/07/13 11:26:56;;;;;;;3.22;1.80;;;29.40;1.00;;;;;;5052031;28;20642;-88
2022/07/13 11:29:28;;;;;;;3.03;1.90;;;29.50;1.00;;;;;;5037638;28;20609;-85
2022/07/13 11:31:56;;;;;;;3.60;2.15;;;29.40;1.00;;;;;;5045071;28;20502;-86
2022/07/13 11:34:24;;;;;;;3.38;2.25;;;29.60;1.00;;;;;;5055523;28;20265;-85
2022/07/13 11:36:51;;;;;;;3.28;2.20;;;29.20;1.00;;;;;;5055625;28;20483;-85
2022/07/13 11:42:35;;;;;;;4.65;1.85;;;29.10;1.00;;;;;;5044106;28;20221;-88
2022/07/13 11:45:02;;;;;;;3.45;2.50;;;29.20;1.00;;;;;;5044121;28;20585;-86
2022/07/13 11:47:29;;;;;;;2.92;1.80;;;29.40;1.00;;;;;;5053887;28;20218;-83
2022/07/13 11:49:56;;;;;;;4.18;2.28;;;29.40;1.00;;;;;;5050079;28;20206;-83
2022/07/13 11:52:24;;;;;;;3.35;2.00;;;29.20;1.00;;;;;;5047625;28;20214;-83
2022/07/13 11:55:01;;;;;;;4.28;2.00;;;29.00;1.00;;;;;;5054719;28;20209;-87
2022/07/13 11:57:28;;;;;;;2.85;1.75;;;29.20;1.00;;;;;;5054637;28;20474;-82
2022/07/13 12:00:00;;;;;;;2.45;1.90;;;29.40;1.00;;;;;;5044919;28;20214;-81
2022/07/13 12:02:27;;;;;;;6.75;2.60;;;29.70;1.00;;;;;;5036179;28;20747;-89
2022/07/13 12:04:54;;;;;;;4.18;2.50;;;29.30;1.00;;;;;;5035765;28;20612;-92
2022/07/13 12:07:23;;;;;;;3.50;2.47;;;28.90;1.00;;;;;;5035160;28;20542;-86
2022/07/13 12:09:52;;;;;;;3.97;2.33;;;28.60;1.00;;;;;;5035418;28;20202;-93
2022/07/13 12:12:21;;;;;;;4.88;2.67;;;28.40;1.00;;;;;;5035095;28;20214;-85
2022/07/13 12:14:50;;;;;;;5.05;2.90;;;28.10;1.00;;;;;;5049434;28;20289;-87
2022/07/13 12:17:17;;;;;;;6.22;2.78;;;28.00;1.00;;;;;;5054987;28;20471;-87
2022/07/13 12:19:44;;;;;;;6.35;2.65;;;27.70;34.80;;;;;;5054952;28;20214;-91
2022/07/13 12:22:11;;;;;;;3.05;2.53;;;27.80;84.80;;;;;;5054641;28;20577;-88
2022/07/13 12:24:44;;;;;;;4.43;2.53;;;27.70;99.90;;;;;;5055239;28;20654;-85
2022/07/13 12:27:22;;;;;;;3.70;2.38;;;27.50;99.90;;;;;;5042264;28;20206;-90
2022/07/13 12:29:49;;;;;;;6.68;2.67;;;27.40;99.90;;;;;;5035026;28;20197;-84
2022/07/13 12:32:15;;;;;;;6.38;2.60;;;27.10;99.90;;;;;;5034930;28;20222;-85
2022/07/13 12:34:51;;;;;;;4.38;2.10;;;26.90;1.00;;;;;;5053045;28;20245;-86
2022/07/13 12:37:33;;;;;;;8.02;2.67;;;27.00;1.00;;;;;;5053676;28;20205;-87
2022/07/13 12:40:00;;;;;;;6.18;2.88;;;27.00;99.90;;;;;;5034877;28;20197;-85
2022/07/13 12:42:28;;;;;;;5.38;2.55;;;27.00;1.00;;;;;;5037748;28;20201;-89
2022/07/13 12:44:55;;;;;;;7.50;2.63;;;27.20;74.70;;;;;;5049052;28;20255;-87
2022/07/13 12:47:24;;;;;;;5.45;2.28;;;27.30;1.00;;;;;;5054351;28;20648;-88
2022/07/13 12:49:52;;;;;;;4.20;2.30;;;27.50;1.00;;;;;;5054099;28;20198;-84
2022/07/13 12:52:19;;;;;;;4.93;2.20;;;27.80;1.00;;;;;;5044365;28;20226;-86
2022/07/13 12:54:48;;;;;;;4.93;2.25;;;27.90;99.90;;;;;;5033916;28;20237;-85
2022/07/13 12:57:17;;;;;;;3.22;2.42;;;27.90;99.90;;;;;;5034150;28;20289;-85
2022/07/13 13:00:10;;;;;;;4.88;2.33;;;27.90;99.90;;;;;;5034126;28;20277;-83
2022/07/13 13:02:37;;;;;;;6.35;2.70;;;28.10;99.90;;;;;;5033420;28;20286;-88
2022/07/13 13:05:06;;;;;;;5.22;2.20;;;27.80;69.00;;;;;;5038768;28;20202;-85
2022/07/13 13:07:35;;;;;;;4.00;2.38;;;27.40;99.90;;;;;;5034049;28;20213;-87
2022/07/13 13:10:02;;;;;;;7.38;2.30;;;27.20;1.00;;;;;;5034301;28;20217;-85
2022/07/13 13:12:29;;;;;;;7.53;2.58;;;27.30;99.90;;;;;;5034192;28;20219;-88
2022/07/13 13:14:56;;;;;;;7.95;2.50;;;27.30;99.90;;;;;;5050414;28;20256;-88
2022/07/13 13:17:24;;;;;;;4.30;2.28;;;27.20;1.00;;;;;;5044178;28;20198;-85
2022/07/13 13:19:51;;;;;;;4.70;2.17;;;27.00;99.90;;;;;;5034338;28;20270;-89